createdAt,value
2023-01-29T00:00:58.515Z,60.27
2023-01-29T00:01:58.644Z,60.40
2023-01-29T00:02:58.787Z,60.14
2023-01-29T00:03:58.807Z,59.84
2023-01-29T00:04:59.305Z,60.01
2023-01-29T00:05:59.056Z,60.14
2023-01-29T00:06:59.180Z,60.10
2023-01-29T00:07:59.324Z,59.88
2023-01-29T00:08:59.388Z,59.97
2023-01-29T00:09:59.493Z,59.76
2023-01-29T00:10:59.627Z,59.63
2023-01-29T00:11:59.726Z,59.58
2023-01-29T00:12:59.826Z,59.71
2023-01-29T00:13:59.987Z,59.76
2023-01-29T00:15:00.123Z,59.67
2023-01-29T00:16:00.168Z,59.46
2023-01-29T00:17:00.320Z,59.71
2023-01-29T00:18:00.408Z,59.50
2023-01-29T00:19:00.564Z,59.50
2023-01-29T00:20:00.651Z,59.54
2023-01-29T00:21:00.783Z,59.67
2023-01-29T00:22:00.869Z,59.80
2023-01-29T00:23:00.921Z,59.58
2023-01-29T00:24:01.303Z,59.46
2023-01-29T00:25:01.195Z,59.71
2023-01-29T00:26:01.261Z,59.71
2023-01-29T00:27:01.374Z,59.97
2023-01-29T00:28:01.490Z,59.88
2023-01-29T00:29:01.638Z,59.84
2023-01-29T00:30:01.690Z,59.93
2023-01-29T00:31:01.882Z,59.84
2023-01-29T00:32:02.028Z,60.36
2023-01-29T00:33:02.025Z,60.06
2023-01-29T00:34:02.195Z,60.40
2023-01-29T00:35:02.254Z,60.49
2023-01-29T00:36:02.340Z,60.36
2023-01-29T00:37:02.473Z,60.53
2023-01-29T00:38:02.568Z,60.53
2023-01-29T00:39:02.924Z,60.14
2023-01-29T00:40:02.765Z,60.53
2023-01-29T00:41:02.889Z,60.49
2023-01-29T00:42:03.018Z,60.53
2023-01-29T00:43:03.132Z,60.49
2023-01-29T00:44:03.234Z,60.49
2023-01-29T00:45:03.334Z,60.76
2023-01-29T00:46:03.430Z,60.84
2023-01-29T00:47:03.584Z,60.98
2023-01-29T00:48:03.691Z,61.11
2023-01-29T00:49:03.923Z,60.67
2023-01-29T00:50:03.920Z,61.38
2023-01-29T00:51:04.042Z,61.38
2023-01-29T00:52:04.124Z,61.61
2023-01-29T00:53:04.241Z,61.43
2023-01-29T00:54:04.411Z,61.02
2023-01-29T00:55:04.505Z,61.61
2023-01-29T00:56:04.551Z,61.88
2023-01-29T00:57:04.680Z,61.88
2023-01-29T00:58:04.777Z,62.07
2023-01-29T00:59:04.912Z,62.16
2023-01-29T01:00:05.007Z,62.34
2023-01-29T01:01:05.193Z,62.25
2023-01-29T01:02:05.306Z,62.39
2023-01-29T01:03:05.334Z,62.72
2023-01-29T01:04:05.600Z,62.62
2023-01-29T01:05:05.539Z,63.00
2023-01-29T01:06:05.652Z,62.96
2023-01-29T01:07:05.749Z,63.19
2023-01-29T01:08:05.846Z,63.10
2023-01-29T01:09:05.973Z,63.05
2023-01-29T01:10:06.093Z,63.58
2023-01-29T01:11:06.197Z,63.29
2023-01-29T01:12:06.291Z,63.68
2023-01-29T01:13:06.516Z,63.63
2023-01-29T01:14:06.596Z,63.72
2023-01-29T01:15:06.634Z,63.68
2023-01-29T01:16:06.799Z,63.72
2023-01-29T01:17:06.851Z,64.02
2023-01-29T01:18:06.978Z,63.77
2023-01-29T01:19:07.089Z,64.07
2023-01-29T01:20:07.210Z,64.02
2023-01-29T01:21:07.289Z,64.12
2023-01-29T01:22:07.388Z,64.46
2023-01-29T01:23:07.512Z,64.26
2023-01-29T01:24:07.693Z,64.46
2023-01-29T01:25:07.716Z,64.32
2023-01-29T01:26:07.833Z,64.46
2023-01-29T01:27:07.931Z,64.56
2023-01-29T01:28:08.034Z,64.51
2023-01-29T01:29:08.157Z,64.81
2023-01-29T01:30:08.308Z,65.22
2023-01-29T01:31:08.529Z,64.92
2023-01-29T01:32:08.500Z,64.81
2023-01-29T01:33:08.588Z,65.12
2023-01-29T01:34:08.736Z,65.32
2023-01-29T01:35:08.836Z,65.27
2023-01-29T01:36:08.946Z,65.48
2023-01-29T01:37:09.095Z,65.37
2023-01-29T01:38:09.184Z,65.79
2023-01-29T01:39:09.339Z,65.79
2023-01-29T01:40:09.435Z,65.84
2023-01-29T01:41:09.553Z,65.89
2023-01-29T01:42:09.647Z,66.31
2023-01-29T01:43:09.757Z,66.10
2023-01-29T01:44:09.925Z,65.94
2023-01-29T01:45:09.975Z,66.10
2023-01-29T01:46:10.134Z,66.26
2023-01-29T01:47:10.181Z,65.99
2023-01-29T01:48:10.305Z,66.41
2023-01-29T01:49:10.433Z,66.57
2023-01-29T01:50:10.519Z,66.41
2023-01-29T01:51:10.639Z,66.36
2023-01-29T01:52:10.729Z,66.36
2023-01-29T01:53:10.852Z,66.57
2023-01-29T01:54:10.972Z,66.41
2023-01-29T01:55:11.068Z,66.95
2023-01-29T01:56:11.174Z,67.16
2023-01-29T01:57:11.284Z,67.22
2023-01-29T01:58:11.378Z,67.16
2023-01-29T01:59:11.583Z,67.43
2023-01-29T02:00:11.620Z,67.93
2023-01-29T02:01:11.768Z,67.98
2023-01-29T02:02:11.879Z,67.82
2023-01-29T02:03:11.933Z,68.15
2023-01-29T02:04:12.067Z,68.54
2023-01-29T02:05:12.296Z,68.49
2023-01-29T02:06:12.299Z,68.65
2023-01-29T02:07:12.394Z,68.71
2023-01-29T02:08:12.531Z,68.94
2023-01-29T02:09:12.634Z,69.00
2023-01-29T02:10:12.763Z,69.28
2023-01-29T02:11:12.864Z,69.22
2023-01-29T02:12:12.962Z,69.86
2023-01-29T02:13:13.141Z,69.86
2023-01-29T02:14:13.209Z,69.98
2023-01-29T02:15:13.290Z,70.21
2023-01-29T02:16:13.439Z,70.21
2023-01-29T02:17:13.550Z,70.51
2023-01-29T02:18:13.630Z,70.57
2023-01-29T02:19:13.790Z,70.81
2023-01-29T02:20:14.003Z,70.99
2023-01-29T02:21:13.988Z,71.23
2023-01-29T02:22:14.100Z,71.29
2023-01-29T02:23:14.217Z,71.11
2023-01-29T02:24:14.398Z,71.36
2023-01-29T02:25:14.419Z,71.17
2023-01-29T02:26:14.526Z,71.54
2023-01-29T02:27:14.637Z,71.85
2023-01-29T02:28:14.763Z,72.03
2023-01-29T02:29:14.869Z,72.22
2023-01-29T02:30:15.329Z,72.16
2023-01-29T02:31:15.161Z,72.41
2023-01-29T02:32:15.228Z,72.53
2023-01-29T02:33:15.372Z,72.66
2023-01-29T02:34:15.484Z,73.11
2023-01-29T02:35:15.554Z,73.11
2023-01-29T02:36:15.657Z,73.23
2023-01-29T02:37:15.750Z,73.36
2023-01-29T02:38:15.862Z,73.43
2023-01-29T02:39:15.992Z,73.56
2023-01-29T02:40:16.411Z,73.49
2023-01-29T02:41:16.233Z,73.75
2023-01-29T02:42:16.311Z,73.69
2023-01-29T02:43:16.434Z,74.08
2023-01-29T02:44:16.701Z,73.62
2023-01-29T02:45:16.644Z,74.08
2023-01-29T02:46:16.810Z,74.14
2023-01-29T02:47:16.851Z,74.41
2023-01-29T02:48:16.959Z,74.34
2023-01-29T02:49:17.132Z,74.08
2023-01-29T02:50:17.624Z,74.34
2023-01-29T02:51:17.324Z,74.08
2023-01-29T02:52:17.418Z,73.88
2023-01-29T02:53:17.528Z,73.82
2023-01-29T02:54:17.698Z,74.21
2023-01-29T02:55:17.770Z,73.95
2023-01-29T02:56:17.868Z,74.14
2023-01-29T02:57:17.970Z,74.21
2023-01-29T02:58:18.076Z,74.41
2023-01-29T02:59:18.214Z,74.34
2023-01-29T03:00:18.689Z,74.34
2023-01-29T03:01:18.527Z,74.61
2023-01-29T03:02:18.595Z,74.68
2023-01-29T03:03:18.680Z,74.68
2023-01-29T03:04:18.841Z,75.08
2023-01-29T03:05:18.896Z,75.35
2023-01-29T03:06:18.992Z,75.42
2023-01-29T03:07:19.102Z,75.35
2023-01-29T03:08:19.241Z,75.28
2023-01-29T03:09:19.373Z,75.76
2023-01-29T03:10:19.445Z,75.83
2023-01-29T03:11:19.549Z,76.32
2023-01-29T03:12:20.255Z,76.11
2023-01-29T03:13:21.359Z,76.18
2023-01-29T03:14:19.879Z,76.46
2023-01-29T03:15:20.014Z,76.67
2023-01-29T03:16:20.200Z,76.53
2023-01-29T03:17:20.225Z,76.67
2023-01-29T03:18:20.319Z,77.16
2023-01-29T03:19:20.485Z,77.31
2023-01-29T03:20:20.560Z,77.09
2023-01-29T03:21:20.640Z,77.16
2023-01-29T03:22:20.747Z,78.10
2023-01-29T03:23:20.856Z,77.74
2023-01-29T03:24:21.053Z,77.74
2023-01-29T03:25:21.145Z,77.88
2023-01-29T03:26:21.206Z,78.10
2023-01-29T03:27:21.299Z,78.10
2023-01-29T03:28:21.398Z,78.25
2023-01-29T03:29:21.590Z,77.81
2023-01-29T03:30:21.626Z,78.03
2023-01-29T03:31:21.852Z,78.47
2023-01-29T03:32:21.866Z,78.54
2023-01-29T03:33:22.023Z,78.62
2023-01-29T03:34:22.093Z,78.32
2023-01-29T03:35:22.184Z,78.62
2023-01-29T03:36:22.291Z,78.91
2023-01-29T03:37:22.394Z,78.69
2023-01-29T03:38:22.513Z,78.84
2023-01-29T03:39:22.750Z,78.99
2023-01-29T03:40:22.771Z,78.84
2023-01-29T03:41:22.869Z,79.29
2023-01-29T03:42:22.994Z,78.99
2023-01-29T03:43:23.085Z,79.29
2023-01-29T03:44:23.239Z,79.36
2023-01-29T03:45:23.286Z,79.59
2023-01-29T03:46:23.391Z,79.59
2023-01-29T03:47:23.509Z,79.36
2023-01-29T03:48:23.618Z,79.97
2023-01-29T03:49:23.762Z,79.82
2023-01-29T03:50:23.875Z,79.90
2023-01-29T03:51:23.970Z,79.67
2023-01-29T03:52:24.065Z,80.20
2023-01-29T03:53:24.258Z,79.97
2023-01-29T03:54:24.336Z,80.36
2023-01-29T03:55:24.441Z,79.97
2023-01-29T03:56:24.557Z,80.51
2023-01-29T03:57:31.651Z,80.82
2023-01-29T03:58:24.793Z,80.98
2023-01-29T03:59:24.968Z,81.30
2023-01-29T04:00:25.043Z,81.61
2023-01-29T04:01:25.180Z,81.46
2023-01-29T04:02:25.246Z,81.30
2023-01-29T04:03:25.353Z,81.86
2023-01-29T04:04:25.527Z,81.94
2023-01-29T04:05:25.579Z,81.61
2023-01-29T04:06:25.671Z,81.46
2023-01-29T04:07:25.794Z,81.86
2023-01-29T04:08:25.895Z,82.26
2023-01-29T04:09:26.070Z,82.02
2023-01-29T04:10:26.128Z,82.42
2023-01-29T04:11:26.226Z,82.42
2023-01-29T04:12:26.354Z,82.91
2023-01-29T04:13:26.454Z,82.83
2023-01-29T04:14:26.632Z,82.91
2023-01-29T04:15:26.691Z,83.08
2023-01-29T04:16:26.807Z,83.24
2023-01-29T04:17:26.926Z,83.66
2023-01-29T04:18:27.023Z,83.83
2023-01-29T04:19:27.122Z,83.66
2023-01-29T04:20:27.295Z,84.00
2023-01-29T04:21:27.372Z,83.75
2023-01-29T04:22:27.441Z,83.41
2023-01-29T04:23:27.587Z,84.25
2023-01-29T04:24:27.739Z,83.91
2023-01-29T04:25:27.821Z,84.17
2023-01-29T04:26:27.897Z,84.42
2023-01-29T04:27:28.041Z,84.42
2023-01-29T04:28:28.119Z,84.00
2023-01-29T04:29:30.067Z,84.59
2023-01-29T04:30:28.377Z,84.00
2023-01-29T04:31:28.540Z,84.34
2023-01-29T04:32:28.548Z,84.42
2023-01-29T04:33:28.641Z,84.68
2023-01-29T04:34:28.766Z,84.59
2023-01-29T04:35:28.912Z,84.42
2023-01-29T04:36:28.992Z,84.42
2023-01-29T04:37:29.081Z,84.25
2023-01-29T04:38:29.472Z,85.03
2023-01-29T04:39:29.303Z,84.77
2023-01-29T04:40:29.431Z,84.77
2023-01-29T04:41:29.566Z,84.85
2023-01-29T04:42:29.643Z,85.03
2023-01-29T04:43:29.756Z,84.34
2023-01-29T04:44:29.934Z,84.68
2023-01-29T04:45:29.992Z,84.68
2023-01-29T04:46:30.118Z,84.85
2023-01-29T04:47:30.266Z,84.77
2023-01-29T04:48:30.335Z,84.59
2023-01-29T04:49:30.490Z,84.68
2023-01-29T04:50:30.552Z,85.11
2023-01-29T04:51:30.661Z,84.94
2023-01-29T04:52:30.770Z,84.94
2023-01-29T04:53:30.891Z,84.51
2023-01-29T04:54:31.009Z,85.11
2023-01-29T04:55:31.121Z,85.11
2023-01-29T04:56:31.218Z,85.11
2023-01-29T04:57:31.347Z,84.85
2023-01-29T04:58:31.461Z,85.20
2023-01-29T04:59:31.584Z,85.37
2023-01-29T05:00:31.699Z,84.51
2023-01-29T05:01:31.853Z,84.77
2023-01-29T05:02:31.939Z,84.51
2023-01-29T05:03:32.038Z,85.03
2023-01-29T05:04:32.179Z,84.85
2023-01-29T05:05:32.270Z,85.03
2023-01-29T05:06:32.646Z,85.11
2023-01-29T05:07:35.821Z,84.94
2023-01-29T05:08:32.875Z,85.11
2023-01-29T05:09:32.746Z,85.20
2023-01-29T05:10:32.821Z,85.37
2023-01-29T05:11:33.122Z,85.55
2023-01-29T05:12:33.040Z,85.64
2023-01-29T05:13:33.152Z,85.29
2023-01-29T05:14:35.933Z,85.81
2023-01-29T05:15:33.405Z,85.55
2023-01-29T05:16:33.475Z,85.46
2023-01-29T05:17:33.595Z,85.72
2023-01-29T05:18:33.689Z,85.46
2023-01-29T05:19:33.830Z,85.90
2023-01-29T05:20:33.915Z,86.35
2023-01-29T05:21:34.027Z,86.61
2023-01-29T05:22:34.119Z,86.52
2023-01-29T05:23:34.238Z,86.61
2023-01-29T05:24:34.358Z,86.61
2023-01-29T05:25:34.458Z,86.43
2023-01-29T05:26:34.594Z,86.61
2023-01-29T05:27:34.713Z,86.89
2023-01-29T05:28:34.807Z,86.52
2023-01-29T05:29:34.968Z,86.89
2023-01-29T05:30:35.044Z,87.52
2023-01-29T05:31:35.162Z,86.70
2023-01-29T05:32:35.248Z,87.43
2023-01-29T05:33:35.375Z,86.89
2023-01-29T05:34:35.504Z,87.16
2023-01-29T05:35:35.584Z,87.34
2023-01-29T05:36:35.682Z,87.07
2023-01-29T05:37:35.817Z,86.89
2023-01-29T05:38:35.905Z,86.61
2023-01-29T05:39:36.064Z,86.61
2023-01-29T05:40:36.122Z,86.89
2023-01-29T05:41:36.238Z,86.89
2023-01-29T05:42:36.367Z,86.89
2023-01-29T05:43:36.459Z,87.07
2023-01-29T05:44:36.582Z,87.34
2023-01-29T05:45:36.680Z,87.34
2023-01-29T05:46:37.079Z,87.43
2023-01-29T05:47:36.911Z,87.80
2023-01-29T05:48:37.009Z,87.52
2023-01-29T05:49:38.751Z,87.98
2023-01-29T05:50:37.237Z,88.17
2023-01-29T05:51:37.595Z,88.45
2023-01-29T05:52:37.452Z,88.36
2023-01-29T05:53:37.567Z,88.45
2023-01-29T05:54:37.700Z,87.89
2023-01-29T05:55:37.809Z,88.08
2023-01-29T05:56:37.906Z,88.08
2023-01-29T05:57:38.016Z,87.80
2023-01-29T05:58:38.124Z,88.17
2023-01-29T05:59:38.268Z,87.80
2023-01-29T06:00:38.336Z,87.98
2023-01-29T06:01:38.477Z,88.26
2023-01-29T06:02:38.568Z,88.08
2023-01-29T06:03:38.644Z,88.45
2023-01-29T06:04:38.811Z,88.64
2023-01-29T06:05:38.889Z,88.73
2023-01-29T06:06:39.036Z,88.45
2023-01-29T06:07:39.100Z,88.73
2023-01-29T06:08:39.231Z,89.02
2023-01-29T06:09:39.344Z,88.83
2023-01-29T06:10:39.469Z,88.54
2023-01-29T06:11:39.580Z,89.02
2023-01-29T06:12:39.689Z,88.64
2023-01-29T06:13:39.800Z,88.92
2023-01-29T06:14:39.942Z,89.30
2023-01-29T06:15:40.008Z,89.11
2023-01-29T06:16:40.360Z,88.83
2023-01-29T06:17:40.259Z,89.02
2023-01-29T06:18:42.970Z,89.02
2023-01-29T06:19:40.477Z,89.21
2023-01-29T06:20:40.585Z,89.11
2023-01-29T06:21:40.705Z,88.92
2023-01-29T06:22:40.806Z,89.88
2023-01-29T06:23:41.305Z,89.21
2023-01-29T06:24:41.815Z,89.69
2023-01-29T06:25:41.719Z,89.21
2023-01-29T06:26:41.418Z,88.92
2023-01-29T06:27:41.739Z,89.40
2023-01-29T06:28:42.143Z,89.30
2023-01-29T06:29:42.132Z,89.11
2023-01-29T06:30:42.308Z,89.30
2023-01-29T06:31:42.634Z,89.02
2023-01-29T06:32:42.845Z,89.21
2023-01-29T06:33:42.175Z,89.21
2023-01-29T06:34:42.229Z,89.11
2023-01-29T06:35:42.292Z,89.30
2023-01-29T06:36:42.401Z,90.07
2023-01-29T06:37:42.511Z,90.17
2023-01-29T06:38:42.620Z,90.37
2023-01-29T06:39:42.852Z,90.66
2023-01-29T06:40:43.057Z,90.66
2023-01-29T06:41:42.946Z,90.76
2023-01-29T06:42:45.259Z,91.16
2023-01-29T06:43:43.188Z,91.56
2023-01-29T06:44:43.374Z,91.46
2023-01-29T06:45:43.495Z,91.86
2023-01-29T06:46:43.578Z,91.56
2023-01-29T06:47:43.687Z,91.46
2023-01-29T06:48:43.796Z,91.26
2023-01-29T06:49:43.965Z,91.46
2023-01-29T06:50:44.023Z,91.16
2023-01-29T06:51:51.440Z,91.06
2023-01-29T06:52:44.273Z,90.96
2023-01-29T06:55:11.803Z,107.87
2023-01-29T06:58:33.984Z,117.11
2023-01-29T07:00:59.058Z,124.44
2023-01-29T07:04:05.230Z,127.48
2023-01-29T07:06:32.618Z,131.29
2023-01-29T07:07:41.253Z,121.89
2023-01-29T07:08:32.822Z,116.05
2023-01-29T07:09:33.008Z,112.90
2023-01-29T07:10:33.090Z,110.29
2023-01-29T07:11:33.262Z,108.01
2023-01-29T07:12:33.375Z,105.95
2023-01-29T07:13:42.029Z,104.23
2023-01-29T07:16:14.361Z,121.28
2023-01-29T07:17:14.410Z,113.99
2023-01-29T07:18:14.559Z,109.86
2023-01-29T07:19:14.741Z,107.59
2023-01-29T07:20:15.269Z,105.42
2023-01-29T07:21:21.982Z,104.36
2023-01-29T07:22:15.052Z,102.88
2023-01-29T07:23:17.816Z,101.94
2023-01-29T07:24:15.380Z,101.32
2023-01-29T07:25:15.493Z,100.59
2023-01-29T07:26:15.611Z,99.21
2023-01-29T07:27:15.982Z,98.98
2023-01-29T07:28:15.813Z,98.92
2023-01-29T07:29:15.930Z,98.57
2023-01-29T07:30:25.072Z,98.39
2023-01-29T07:31:16.258Z,97.53
2023-01-29T07:32:16.568Z,97.99
2023-01-29T07:34:43.691Z,115.96
2023-01-29T07:35:43.791Z,111.10
2023-01-29T07:36:43.944Z,108.01
2023-01-29T07:37:44.089Z,107.04
2023-01-29T07:38:44.284Z,105.75
2023-01-29T07:39:44.341Z,105.22
2023-01-29T07:40:44.682Z,104.43
2023-01-29T07:41:44.681Z,104.62
2023-01-29T07:42:44.749Z,105.28
2023-01-29T07:43:44.955Z,103.78
2023-01-29T07:44:45.040Z,103.71
2023-01-29T07:45:45.153Z,104.23
2023-01-29T07:46:45.281Z,103.78
2023-01-29T07:47:45.409Z,103.58
2023-01-29T07:48:45.557Z,103.39
2023-01-29T07:49:45.696Z,103.84
2023-01-29T07:50:45.843Z,104.23
2023-01-29T07:51:45.988Z,104.82
2023-01-29T07:52:47.697Z,105.42
2023-01-29T07:53:46.315Z,105.35
2023-01-29T07:54:46.454Z,105.82
2023-01-29T07:55:46.607Z,105.62
2023-01-29T07:56:46.831Z,106.09
2023-01-29T07:57:46.776Z,106.15
2023-01-29T07:58:47.141Z,107.38
2023-01-29T07:59:47.211Z,107.25
2023-01-29T08:00:47.144Z,107.73
2023-01-29T08:01:47.246Z,108.29
2023-01-29T08:02:47.383Z,108.01
2023-01-29T08:03:49.427Z,108.43
2023-01-29T08:04:47.672Z,109.50
2023-01-29T08:05:47.819Z,109.43
2023-01-29T08:06:47.912Z,110.44
2023-01-29T08:08:00.852Z,111.25
2023-01-29T08:08:49.359Z,111.85
2023-01-29T08:09:48.294Z,111.47
2023-01-29T08:10:48.452Z,111.40
2023-01-29T08:11:48.609Z,111.03
2023-01-29T08:12:48.929Z,110.73
2023-01-29T08:13:48.890Z,109.93
2023-01-29T08:14:49.678Z,110.00
2023-01-29T08:15:49.085Z,110.59
2023-01-29T08:16:49.207Z,110.15
2023-01-29T08:17:57.437Z,110.95
2023-01-29T08:18:50.503Z,111.10
2023-01-29T08:19:49.601Z,111.77
2023-01-29T08:20:49.711Z,112.22
2023-01-29T08:21:49.868Z,112.68
2023-01-29T08:22:50.003Z,113.60
2023-01-29T08:23:50.117Z,114.61
2023-01-29T08:24:54.437Z,115.40
2023-01-29T08:25:51.365Z,116.69
2023-01-29T08:26:50.468Z,118.35
2023-01-29T08:27:50.616Z,119.20
2023-01-29T08:28:50.722Z,120.14
2023-01-29T08:29:50.851Z,121.01
2023-01-29T08:30:51.003Z,123.61
2023-01-29T08:31:51.181Z,123.61
2023-01-29T08:32:51.312Z,124.81
2023-01-29T08:33:51.385Z,125.66
2023-01-29T08:34:51.500Z,128.07
2023-01-29T08:35:51.647Z,129.06
2023-01-29T08:36:51.723Z,130.47
2023-01-29T08:37:51.919Z,131.71
2023-01-29T08:38:51.969Z,132.54
2023-01-29T08:39:52.518Z,135.34
2023-01-29T08:40:52.221Z,136.11
2023-01-29T08:41:52.317Z,137.68
2023-01-29T08:42:52.500Z,139.18
2023-01-29T08:43:59.598Z,141.54
2023-01-29T08:44:52.688Z,143.73
2023-01-29T08:45:52.838Z,143.98
2023-01-29T08:46:53.011Z,144.60
2023-01-29T08:47:53.091Z,147.03
2023-01-29T08:48:53.237Z,146.90
2023-01-29T08:49:53.404Z,146.38
2023-01-29T08:50:53.502Z,145.62
2023-01-29T08:51:53.628Z,146.90
2023-01-29T08:52:53.780Z,147.29
2023-01-29T08:53:53.877Z,147.29
2023-01-29T08:54:54.020Z,148.20
2023-01-29T08:55:54.154Z,149.53
2023-01-29T08:56:54.303Z,152.12
2023-01-29T08:57:54.526Z,153.38
2023-01-29T08:58:54.621Z,155.09
2023-01-29T08:59:54.692Z,157.13
2023-01-29T09:00:54.895Z,159.08
2023-01-29T09:01:54.954Z,157.73
2023-01-29T09:02:55.168Z,159.84
2023-01-29T09:03:55.274Z,160.15
2023-01-29T09:04:55.342Z,161.86
2023-01-29T09:05:55.498Z,163.12
2023-01-29T09:06:55.637Z,166.04
2023-01-29T09:07:55.790Z,166.21
2023-01-29T09:08:55.897Z,164.73
2023-01-29T09:09:56.025Z,164.73
2023-01-29T09:10:56.149Z,166.88
2023-01-29T09:11:56.345Z,167.38
2023-01-29T09:12:56.778Z,168.39
2023-01-29T09:13:56.709Z,167.21
2023-01-29T09:14:57.701Z,167.54
2023-01-29T09:15:57.980Z,168.90
2023-01-29T09:16:57.461Z,169.42
2023-01-29T09:17:57.303Z,171.51
2023-01-29T09:18:57.337Z,175.10
2023-01-29T09:19:57.498Z,179.05
2023-01-29T09:20:57.464Z,180.60
2023-01-29T09:21:57.606Z,185.01
2023-01-29T09:22:57.757Z,187.53
2023-01-29T09:23:57.864Z,188.61
2023-01-29T09:24:58.044Z,189.04
2023-01-29T09:25:58.115Z,186.78
2023-01-29T09:26:58.242Z,187.75
2023-01-29T09:27:58.406Z,192.48
2023-01-29T09:28:58.491Z,195.93
2023-01-29T09:29:58.634Z,197.46
2023-01-29T09:30:58.780Z,201.09
2023-01-29T09:31:58.938Z,202.96
2023-01-29T09:32:59.061Z,206.28
2023-01-29T09:33:59.212Z,209.44
2023-01-29T09:34:59.341Z,210.51
2023-01-29T09:35:59.525Z,210.78
2023-01-29T09:36:59.618Z,212.56
2023-01-29T09:37:59.771Z,210.51
2023-01-29T09:38:59.870Z,212.56
2023-01-29T09:40:00.001Z,211.46
2023-01-29T09:41:00.148Z,208.90
2023-01-29T09:42:00.296Z,207.32
2023-01-29T09:43:00.409Z,204.22
2023-01-29T09:44:00.543Z,204.99
2023-01-29T09:45:00.702Z,203.59
2023-01-29T09:46:00.805Z,207.19
2023-01-29T09:47:00.897Z,204.86
2023-01-29T09:48:01.099Z,207.06
2023-01-29T09:49:01.185Z,206.93
2023-01-29T09:50:01.329Z,207.45
2023-01-29T09:51:01.476Z,205.89
2023-01-29T09:52:01.598Z,207.06
2023-01-29T09:53:01.744Z,207.98
2023-01-29T09:54:01.885Z,209.97
2023-01-29T09:55:02.030Z,215.77
2023-01-29T09:56:02.156Z,218.79
2023-01-29T09:57:02.316Z,221.90
2023-01-29T09:58:02.441Z,225.10
2023-01-29T09:59:02.536Z,229.35
2023-01-29T10:00:02.658Z,232.60
2023-01-29T10:01:02.834Z,234.43
2023-01-29T10:02:03.017Z,236.79
2023-01-29T10:03:03.113Z,237.31
2023-01-29T10:04:03.271Z,235.44
2023-01-29T10:05:03.362Z,237.65
2023-01-29T10:06:03.474Z,236.28
2023-01-29T10:07:03.618Z,239.21
2023-01-29T10:08:03.794Z,240.79
2023-01-29T10:09:03.872Z,239.56
2023-01-29T10:10:04.012Z,238.00
2023-01-29T10:11:04.135Z,238.52
2023-01-29T10:12:04.257Z,232.93
2023-01-29T10:13:04.426Z,232.60
2023-01-29T10:14:04.505Z,232.43
2023-01-29T10:15:04.636Z,231.45
2023-01-29T10:16:04.820Z,233.59
2023-01-29T10:17:04.931Z,233.76
2023-01-29T10:18:05.052Z,239.21
2023-01-29T10:19:05.169Z,242.39
2023-01-29T10:20:05.311Z,243.47
2023-01-29T10:21:05.450Z,245.84
2023-01-29T10:22:05.576Z,250.15
2023-01-29T10:23:05.733Z,256.81
2023-01-29T10:24:05.826Z,258.02
2023-01-29T10:25:05.959Z,253.63
2023-01-29T10:26:06.105Z,254.03
2023-01-29T10:27:06.194Z,258.43
2023-01-29T10:28:06.323Z,263.41
2023-01-29T10:29:06.435Z,267.49
2023-01-29T10:30:06.572Z,272.60
2023-01-29T10:31:06.762Z,273.28
2023-01-29T10:32:07.027Z,271.02
2023-01-29T10:33:06.978Z,271.47
2023-01-29T10:34:07.119Z,277.91
2023-01-29T10:35:07.177Z,282.94
2023-01-29T10:36:07.269Z,281.25
2023-01-29T10:37:07.387Z,281.73
2023-01-29T10:38:07.554Z,283.68
2023-01-29T10:39:07.587Z,288.42
2023-01-29T10:40:07.690Z,294.10
2023-01-29T10:41:07.809Z,298.11
2023-01-29T10:42:07.934Z,296.23
2023-01-29T10:43:08.087Z,303.35
2023-01-29T10:44:08.166Z,306.75
2023-01-29T10:45:08.270Z,305.89
2023-01-29T10:46:08.356Z,307.04
2023-01-29T10:47:08.512Z,305.32
2023-01-29T10:48:08.629Z,307.61
2023-01-29T10:49:08.665Z,306.18
2023-01-29T10:50:08.775Z,307.04
2023-01-29T10:51:08.889Z,313.49
2023-01-29T10:52:08.986Z,314.39
2023-01-29T10:53:09.152Z,315.00
2023-01-29T10:54:09.221Z,315.90
2023-01-29T10:55:09.298Z,316.82
2023-01-29T10:56:21.876Z,316.82
2023-01-29T10:57:10.543Z,313.49
2023-01-29T10:58:09.670Z,321.16
2023-01-29T10:59:09.754Z,318.67
2023-01-29T11:00:09.854Z,321.79
2023-01-29T11:01:09.997Z,317.43
2023-01-29T11:02:10.120Z,318.36
2023-01-29T11:03:21.691Z,325.95
2023-01-29T11:04:11.425Z,329.22
2023-01-29T11:05:10.481Z,331.21
2023-01-29T11:06:10.538Z,332.55
2023-01-29T11:07:10.659Z,330.88
2023-01-29T11:08:10.799Z,331.88
2023-01-29T11:09:10.869Z,332.22
2023-01-29T11:10:10.969Z,332.55
2023-01-29T11:11:11.067Z,334.59
2023-01-29T11:12:11.253Z,332.55
2023-01-29T11:13:11.303Z,331.21
2023-01-29T11:14:11.407Z,331.21
2023-01-29T11:15:11.509Z,330.55
2023-01-29T11:16:11.600Z,334.25
2023-01-29T11:17:11.815Z,333.57
2023-01-29T11:18:11.828Z,335.27
2023-01-29T11:19:11.992Z,332.89
2023-01-29T11:20:12.037Z,329.88
2023-01-29T11:21:12.161Z,327.25
2023-01-29T11:22:12.244Z,326.60
2023-01-29T11:23:12.340Z,329.22
2023-01-29T11:24:12.458Z,328.56
2023-01-29T11:25:12.547Z,329.22
2023-01-29T11:26:12.682Z,324.34
2023-01-29T11:27:12.775Z,325.30
2023-01-29T11:28:12.874Z,325.30
2023-01-29T11:29:12.996Z,329.22
2023-01-29T11:30:13.090Z,331.55
2023-01-29T11:31:13.319Z,330.88
2023-01-29T11:32:13.312Z,325.30
2023-01-29T11:33:13.415Z,325.95
2023-01-29T11:34:13.536Z,324.34
2023-01-29T11:35:13.635Z,326.60
2023-01-29T11:36:13.745Z,327.58
2023-01-29T11:37:13.855Z,330.21
2023-01-29T11:38:13.963Z,331.88
2023-01-29T11:39:14.082Z,330.21
2023-01-29T11:40:14.435Z,333.91
2023-01-29T11:41:14.319Z,335.27
2023-01-29T11:42:15.134Z,338.39
2023-01-29T11:43:14.530Z,335.27
2023-01-29T11:44:14.790Z,330.55
2023-01-29T11:45:14.781Z,332.89
2023-01-29T11:46:14.935Z,335.96
2023-01-29T11:47:14.999Z,340.14
2023-01-29T11:48:15.099Z,337.34
2023-01-29T11:49:20.922Z,335.62
2023-01-29T11:50:16.619Z,341.55
2023-01-29T11:51:15.409Z,343.70
2023-01-29T11:52:15.529Z,346.61
2023-01-29T11:53:15.686Z,348.45
2023-01-29T11:54:15.775Z,350.31
2023-01-29T11:55:15.865Z,353.33
2023-01-29T11:56:15.986Z,351.81
2023-01-29T11:57:16.078Z,345.15
2023-01-29T11:58:16.197Z,344.42
2023-01-29T11:59:16.315Z,343.70
2023-01-29T12:00:16.689Z,348.45
2023-01-29T12:01:16.523Z,349.56
2023-01-29T12:02:16.661Z,346.61
2023-01-29T12:03:16.766Z,341.91
2023-01-29T12:04:16.885Z,338.73
2023-01-29T12:05:16.994Z,332.22
2023-01-29T12:06:17.094Z,333.23
2023-01-29T12:07:17.184Z,332.22
2023-01-29T12:08:17.293Z,332.55
2023-01-29T12:09:17.469Z,335.62
2023-01-29T12:10:17.857Z,341.91
2023-01-29T12:11:17.630Z,345.88
2023-01-29T12:12:17.707Z,345.15
2023-01-29T12:13:17.811Z,348.08
2023-01-29T12:14:17.989Z,346.97
2023-01-29T12:15:18.055Z,345.51
2023-01-29T12:16:18.198Z,344.42
2023-01-29T12:17:18.313Z,344.42
2023-01-29T12:18:18.427Z,347.34
2023-01-29T12:19:18.548Z,355.24
2023-01-29T12:20:19.101Z,357.17
2023-01-29T12:21:18.843Z,365.93
2023-01-29T12:22:18.855Z,364.71
2023-01-29T12:23:18.980Z,371.32
2023-01-29T12:24:19.108Z,371.32
2023-01-29T12:25:19.223Z,375.57
2023-01-29T12:26:19.347Z,381.92
2023-01-29T12:27:19.441Z,376.00
2023-01-29T12:28:20.505Z,381.48
2023-01-29T12:29:19.686Z,382.58
2023-01-29T12:30:20.031Z,382.14
2023-01-29T12:31:19.902Z,376.86
2023-01-29T12:32:19.993Z,382.14
2023-01-29T12:33:20.074Z,385.23
2023-01-29T12:34:20.243Z,392.48
2023-01-29T12:35:20.343Z,392.02
2023-01-29T12:36:20.442Z,393.88
2023-01-29T12:37:20.554Z,398.35
2023-01-29T12:38:20.671Z,408.60
2023-01-29T12:39:20.795Z,407.35
2023-01-29T12:40:20.914Z,415.47
2023-01-29T12:41:21.041Z,425.82
2023-01-29T12:42:21.122Z,430.49
2023-01-29T12:43:21.231Z,432.17
2023-01-29T12:44:21.493Z,442.20
2023-01-29T12:45:21.439Z,448.14
2023-01-29T12:46:21.551Z,449.05
2023-01-29T12:47:21.672Z,451.78
2023-01-29T12:48:21.795Z,456.11
2023-01-29T12:49:21.913Z,460.20
2023-01-29T12:50:22.018Z,464.05
2023-01-29T12:51:22.107Z,471.26
2023-01-29T12:52:22.228Z,468.28
2023-01-29T12:53:22.336Z,463.08
2023-01-29T12:54:22.471Z,463.72
2023-01-29T12:55:22.535Z,456.11